Airfield :
LOGIN :

Register | Disclaimer

   EN    FR    IT 

 










Legend :    VFR   Marginal VFR   IFR   Intensive IFR   Very Intensive IFR
Visi :
Ceiling :
>= 8 km
>= 3000ft
5 to 8 km
1000 to 3000 ft
1500m to 5 km
500 to 1000 ft
800 to 1500m
200 to 500 ft
< 800m
< 200 ft
Symbols :   Thunderstorms  Fog  Heavy snow  Heavy precipitations  Wind > 20 kt
SIGMETs :     Misc.  Thunderstorms  Icing  Turbulence  Mountain Waves  Volcanic Ashes






- Airport Elevation : 59 ft
- IATA code : TSF


LIPH - Treviso

CURRENT METAR :
  • 081120Z VRB03KT CAVOK 26/12 Q1018

EXPIRED METARs :
  • 081050Z 23004KT 200V290 CAVOK 26/10 Q1018
  • 081020Z 08004KT 030V170 CAVOK 25/13 Q1018
  • 080950Z VRB03KT CAVOK 25/11 Q1018
  • 080920Z 12004KT 090V200 CAVOK 24/12 Q1018
  • 080850Z 12005KT 050V170 CAVOK 24/12 Q1018

TAF TAF LIPH
Valid from the 08 at 12:00 until the 09 at 12:00 UTC


081100Z 0812/0912 VRB06KT 9999 FEW030



MET'MAP, your aeronautical weather chart ! - Copyright ORBIFLY December 2007 - Disclaimer

ORBIFLY MET'MAP TEAM :

Programming & Development : Alexandra Zaïnal
Concept & original design : Baudouin d'Aumeries
Assistance for programming : Marc-Olivier Méhu
Technical & hardware support : Manuel Goepfert

Contact : metmap@orbifly.com




SOURCES & CREDITS :

   NOAA